Portada
METAR-TAF:

METAR-TAF

Aeroports :

Aeroport de Benguela

Benguela, Angola

latitud: 12-36-30S, longitud: 13-24-10E, altitud: 36 m

Observació

L'informe es va fer fa 11 hores i 2 minuts, a les 13:00 UTC
Vent 6 kt del Oest/Nord-Oest
Temperatura 27°C
Humitat 70%
Pressió 1010 hPa
Visibilitat 10 km o més
Escasses núvols a una alçada de 1500 ft

METAR: FNBG 291300Z 30006KT 9999 FEW015 27/21 Q1010

Hora: 01:02 (00:02 UTC)

Pronòstic

L'informe es va fer fa 1 hora i 2 minuts, a les 23:00 UTC
Pronòstic vàlid del 30 a les 00 UTC al 30 a les 12 UTC
Vent 3 kt amb direcció variable
Visibilitat: 9000 m
Núvols disperses a una alçada de 1800 ft
Cel ennuvolat a una alçada de 4000 ft
Evolucionant progressivament
l' 30 a les 10 UTC al 30 a les 12 UTC
Vent 8 kt del Nord-Oest
Visibilitat 10 km o més
Escasses núvols a una alçada de 2000 ft

TAF: FNBG 292300Z 3000/3012 VRB03KT 9000 SCT018 BKN040 BECMG 3010/3012 32008KT 9999 FEW020

Observacions i pronòstics meteorològics de més de 4000 aeroports (METAR i TAF).

Les estacions disponibles són els punts grocs i vermells al mapa.

Posi el ratolí al punt desitjat per veure el nom de l'estació.

Feu clic per veure les observacions i els pronòstics meteorològics.

Per canviar el mapa: feu clic els botons verds amb una creu de color negre per apropar; al botó verd amb un guió per allunyar la imatge; o en les fletxes verdes per a mapes adjacents.


METAR-TAF: